Time;durP1;ratioP1;P1;durP2;ratioP2;P2;SDS_P1;SDS_P2;PMS_P1;PMS_P2;Temp;Humidity;BMP_temperature;BMP_pressure;BME280_temperature;BME280_humidity;BME280_pressure;Samples;Min_cycle;Max_cycle;Signal;HPM_P1;HPM_P2
2023/03/07 00:00:12;;;;;;;;;;;20.60;54.20;;;;;;1528558;77;915;-62
2023/03/07 00:02:14;;;;;;;;;;;20.60;54.20;;;;;;1526800;76;1176;-62
2023/03/07 00:04:16;;;;;;;;;;;20.60;54.20;;;;;;1529120;77;766;-63
2023/03/07 00:06:18;;;;;;;;;;;20.60;54.10;;;;;;1529836;77;737;-61
2023/03/07 00:08:20;;;;;;;;;;;20.60;54.10;;;;;;1526235;77;661;-62
2023/03/07 00:10:21;;;;;;;;;;;20.60;54.10;;;;;;1527112;77;772;-61
2023/03/07 00:12:23;;;;;;;;;;;20.60;54.10;;;;;;1522273;77;1926;-62
2023/03/07 00:14:25;;;;;;;;;;;20.50;54.20;;;;;;1525674;77;747;-62
2023/03/07 00:16:27;;;;;;;;;;;20.60;54.20;;;;;;1528911;77;762;-68
2023/03/07 00:18:29;;;;;;;;;;;20.60;54.40;;;;;;1534484;77;719;-61
2023/03/07 00:20:31;;;;;;;;;;;20.50;54.30;;;;;;1528729;77;1539;-62
2023/03/07 00:22:34;;;;;;;;;;;20.50;54.30;;;;;;1519674;77;1085;-61
2023/03/07 00:24:35;;;;;;;;;;;20.50;54.40;;;;;;1528725;77;700;-62
2023/03/07 00:26:38;;;;;;;;;;;20.50;54.40;;;;;;1520413;77;614;-62
2023/03/07 00:28:40;;;;;;;;;;;20.50;54.40;;;;;;1520724;77;730;-62
2023/03/07 00:30:42;;;;;;;;;;;20.50;54.50;;;;;;1528402;77;678;-62
2023/03/07 00:32:44;;;;;;;;;;;20.50;54.50;;;;;;1528788;77;1953;-62
2023/03/07 00:34:46;;;;;;;;;;;20.50;54.60;;;;;;1532284;77;1502;-62
2023/03/07 00:36:47;;;;;;;;;;;20.50;55.00;;;;;;1525300;77;771;-62
2023/03/07 00:38:49;;;;;;;;;;;20.40;55.70;;;;;;1523962;77;744;-62
2023/03/07 00:40:58;;;;;;;;;;;20.40;55.40;;;;;;1526529;77;811;-62
2023/03/07 00:43:00;;;;;;;;;;;20.40;55.50;;;;;;1530970;77;778;-65
2023/03/07 00:45:02;;;;;;;;;;;20.30;55.70;;;;;;1532818;77;723;-62
2023/03/07 00:47:04;;;;;;;;;;;20.30;55.50;;;;;;1532366;77;765;-62
2023/03/07 00:49:07;;;;;;;;;;;20.30;55.70;;;;;;1532637;77;1528;-61
2023/03/07 00:51:10;;;;;;;;;;;20.30;55.70;;;;;;1524522;77;1221;-61
2023/03/07 00:53:12;;;;;;;;;;;20.30;55.80;;;;;;1531651;77;1936;-61
2023/03/07 00:55:13;;;;;;;;;;;20.20;55.70;;;;;;1515704;77;736;-62
2023/03/07 00:57:15;;;;;;;;;;;20.20;55.70;;;;;;1520818;77;785;-61
2023/03/07 00:59:17;;;;;;;;;;;20.20;55.80;;;;;;1532704;77;725;-62
2023/03/07 01:01:20;;;;;;;;;;;20.20;55.60;;;;;;1530955;77;1179;-61
2023/03/07 01:03:22;;;;;;;;;;;20.30;55.60;;;;;;1530902;77;1543;-61
2023/03/07 01:05:24;;;;;;;;;;;20.30;55.60;;;;;;1524872;77;732;-61
2023/03/07 01:07:26;;;;;;;;;;;20.20;55.50;;;;;;1532091;77;719;-61
2023/03/07 01:09:28;;;;;;;;;;;20.20;55.50;;;;;;1531618;77;773;-61
2023/03/07 01:11:30;;;;;;;;;;;20.20;55.60;;;;;;1530887;77;1197;-61
2023/03/07 01:13:32;;;;;;;;;;;20.20;55.60;;;;;;1524220;77;1935;-61
2023/03/07 01:15:34;;;;;;;;;;;20.20;55.60;;;;;;1524462;77;752;-61
2023/03/07 01:17:36;;;;;;;;;;;20.20;55.60;;;;;;1527680;77;1356;-66
2023/03/07 01:19:38;;;;;;;;;;;20.20;55.50;;;;;;1531530;77;631;-62
2023/03/07 01:21:40;;;;;;;;;;;20.20;55.60;;;;;;1514585;77;1143;-64
2023/03/07 01:23:42;;;;;;;;;;;20.10;55.70;;;;;;1510450;77;855;-62
2023/03/07 01:25:44;;;;;;;;;;;20.10;55.70;;;;;;1507351;77;684;-62
2023/03/07 01:27:46;;;;;;;;;;;20.10;55.70;;;;;;1517474;78;778;-61
2023/03/07 01:29:48;;;;;;;;;;;20.20;55.50;;;;;;1531956;76;603;-61
2023/03/07 01:31:49;;;;;;;;;;;20.30;55.40;;;;;;1531065;76;1534;-61
2023/03/07 01:33:52;;;;;;;;;;;20.30;55.30;;;;;;1526366;76;1927;-61
2023/03/07 01:35:53;;;;;;;;;;;20.30;55.50;;;;;;1525604;76;714;-62
2023/03/07 01:37:55;;;;;;;;;;;20.30;55.30;;;;;;1528400;76;746;-61
2023/03/07 01:39:57;;;;;;;;;;;20.30;55.20;;;;;;1530895;76;769;-62
2023/03/07 01:41:59;;;;;;;;;;;20.30;55.10;;;;;;1527964;76;1119;-62
2023/03/07 01:44:04;;;;;;;;;;;20.30;55.20;;;;;;1519154;76;855;-62
2023/03/07 01:46:18;;;;;;;;;;;20.30;55.40;;;;;;1524091;76;1561;-61
2023/03/07 01:48:20;;;;;;;;;;;20.30;55.30;;;;;;1532005;76;690;-62
2023/03/07 01:50:22;;;;;;;;;;;20.30;55.30;;;;;;1523134;76;1037;-62
2023/03/07 01:52:32;;;;;;;;;;;20.20;55.20;;;;;;1528453;76;1133;-61
2023/03/07 01:54:34;;;;;;;;;;;20.30;55.30;;;;;;1512780;76;1943;-61
2023/03/07 01:56:36;;;;;;;;;;;20.30;55.20;;;;;;1516765;77;775;-62
2023/03/07 01:58:38;;;;;;;;;;;20.30;55.10;;;;;;1525268;76;698;-62
2023/03/07 02:00:40;;;;;;;;;;;20.40;55.00;;;;;;1535818;77;1674;-63
2023/03/07 02:02:43;;;;;;;;;;;20.20;55.00;;;;;;1512355;77;1174;-62
2023/03/07 02:04:52;;;;;;;;;;;20.30;55.00;;;;;;1503507;77;795;-63
2023/03/07 02:06:54;;;;;;;;;;;20.40;55.00;;;;;;1495786;79;690;-62
2023/03/07 02:08:56;;;;;;;;;;;20.30;55.00;;;;;;1490826;78;780;-62
2023/03/07 02:10:57;;;;;;;;;;;20.40;55.00;;;;;;1507217;79;713;-62
2023/03/07 02:12:59;;;;;;;;;;;20.30;55.00;;;;;;1494760;79;1517;-62
2023/03/07 02:15:01;;;;;;;;;;;20.30;54.90;;;;;;1523763;76;806;-62
2023/03/07 02:17:03;;;;;;;;;;;20.30;54.90;;;;;;1538383;77;701;-62
2023/03/07 02:19:07;;;;;;;;;;;20.30;54.90;;;;;;1511501;77;764;-62
2023/03/07 02:21:19;;;;;;;;;;;20.30;54.90;;;;;;1533072;76;1761;-62
2023/03/07 02:23:29;;;;;;;;;;;20.40;54.80;;;;;;1506152;77;686;-63
2023/03/07 02:25:35;;;;;;;;;;;20.30;54.80;;;;;;1501626;78;2042;-62
2023/03/07 02:27:37;;;;;;;;;;;20.30;55.20;;;;;;1504969;77;1568;-62
2023/03/07 02:29:39;;;;;;;;;;;20.30;55.50;;;;;;1488861;79;722;-62
2023/03/07 02:31:41;;;;;;;;;;;20.20;55.60;;;;;;1497740;79;1134;-62
2023/03/07 02:33:43;;;;;;;;;;;20.20;55.50;;;;;;1493798;79;1929;-62
2023/03/07 02:35:45;;;;;;;;;;;20.20;55.60;;;;;;1503165;78;791;-62
2023/03/07 02:37:47;;;;;;;;;;;20.20;55.50;;;;;;1526617;77;761;-62
2023/03/07 02:39:49;;;;;;;;;;;20.20;55.50;;;;;;1497351;78;697;-63
2023/03/07 02:41:52;;;;;;;;;;;20.20;55.50;;;;;;1513569;78;1155;-62
2023/03/07 02:43:53;;;;;;;;;;;20.20;55.40;;;;;;1505449;78;765;-61
2023/03/07 02:45:55;;;;;;;;;;;20.20;55.50;;;;;;1504089;78;733;-62
2023/03/07 02:47:57;;;;;;;;;;;20.10;55.30;;;;;;1510214;78;738;-61
2023/03/07 02:49:59;;;;;;;;;;;20.10;55.40;;;;;;1512239;78;730;-61
2023/03/07 02:52:01;;;;;;;;;;;20.10;55.30;;;;;;1506126;78;1145;-61
2023/03/07 02:54:03;;;;;;;;;;;20.10;55.30;;;;;;1501111;78;1937;-60
2023/03/07 02:56:05;;;;;;;;;;;20.30;55.20;;;;;;1500188;78;1587;-62
2023/03/07 02:58:07;;;;;;;;;;;20.30;55.00;;;;;;1495382;78;688;-60
2023/03/07 03:00:11;;;;;;;;;;;20.30;55.20;;;;;;1505982;78;790;-60
2023/03/07 03:02:13;;;;;;;;;;;20.30;55.00;;;;;;1503977;78;1160;-59
2023/03/07 03:04:15;;;;;;;;;;;20.30;55.00;;;;;;1508719;78;685;-61
2023/03/07 03:06:16;;;;;;;;;;;20.30;54.90;;;;;;1502008;78;692;-60
2023/03/07 03:08:19;;;;;;;;;;;20.30;54.90;;;;;;1514773;78;725;-61
2023/03/07 03:10:20;;;;;;;;;;;20.30;54.90;;;;;;1502267;78;1573;-61
2023/03/07 03:12:22;;;;;;;;;;;20.30;54.90;;;;;;1499800;78;1293;-61
2023/03/07 03:14:24;;;;;;;;;;;20.40;54.90;;;;;;1496080;78;1910;-61
2023/03/07 03:16:26;;;;;;;;;;;20.30;54.80;;;;;;1497362;78;639;-61
2023/03/07 03:18:28;;;;;;;;;;;20.30;54.80;;;;;;1508943;78;741;-61
2023/03/07 03:20:30;;;;;;;;;;;20.30;54.80;;;;;;1500966;78;714;-61
2023/03/07 03:22:32;;;;;;;;;;;20.30;54.90;;;;;;1504961;78;1119;-61
2023/03/07 03:24:33;;;;;;;;;;;20.30;54.80;;;;;;1503605;78;1579;-61
2023/03/07 03:26:36;;;;;;;;;;;20.30;54.80;;;;;;1482281;79;1296;-62
2023/03/07 03:28:38;;;;;;;;;;;20.30;54.70;;;;;;1511121;78;707;-62
2023/03/07 03:30:40;;;;;;;;;;;20.30;54.80;;;;;;1508897;78;793;-62
2023/03/07 03:32:42;;;;;;;;;;;20.30;54.80;;;;;;1515265;78;1131;-62
2023/03/07 03:34:44;;;;;;;;;;;20.30;54.90;;;;;;1496355;78;1924;-62
2023/03/07 03:36:46;;;;;;;;;;;20.20;54.70;;;;;;1507193;78;694;-63
2023/03/07 03:38:48;;;;;;;;;;;20.20;54.70;;;;;;1511623;78;1566;-62
2023/03/07 03:40:50;;;;;;;;;;;20.30;54.90;;;;;;1500986;78;722;-62
2023/03/07 03:42:52;;;;;;;;;;;20.30;54.90;;;;;;1507643;77;1124;-61
2023/03/07 03:44:53;;;;;;;;;;;20.30;54.80;;;;;;1489968;78;721;-63
2023/03/07 03:46:55;;;;;;;;;;;20.20;54.70;;;;;;1500464;78;732;-62
2023/03/07 03:48:57;;;;;;;;;;;20.20;54.70;;;;;;1508063;78;768;-62
2023/03/07 03:51:09;;;;;;;;;;;20.30;54.80;;;;;;1497282;78;1145;-61
2023/03/07 03:53:11;;;;;;;;;;;20.30;54.80;;;;;;1480285;79;1678;-62
2023/03/07 03:55:13;;;;;;;;;;;20.20;54.70;;;;;;1496176;78;1942;-62
2023/03/07 03:57:19;;;;;;;;;;;20.20;54.70;;;;;;1510425;78;712;-62
2023/03/07 03:59:21;;;;;;;;;;;20.20;54.80;;;;;;1511870;78;768;-62
2023/03/07 04:01:24;;;;;;;;;;;20.20;54.90;;;;;;1507977;78;1155;-64
2023/03/07 04:03:26;;;;;;;;;;;20.20;54.80;;;;;;1506841;77;662;-62
2023/03/07 04:05:28;;;;;;;;;;;20.20;54.80;;;;;;1502525;78;1554;-63
2023/03/07 04:07:30;;;;;;;;;;;20.20;54.80;;;;;;1495344;78;769;-61
2023/03/07 04:09:32;;;;;;;;;;;20.20;54.80;;;;;;1503453;78;739;-62
2023/03/07 04:11:33;;;;;;;;;;;20.20;54.70;;;;;;1503611;78;1158;-62
2023/03/07 04:13:35;;;;;;;;;;;20.20;54.80;;;;;;1508742;78;744;-62
2023/03/07 04:15:37;;;;;;;;;;;20.20;54.70;;;;;;1509988;78;1933;-62
2023/03/07 04:17:39;;;;;;;;;;;20.10;54.70;;;;;;1500398;78;725;-62
2023/03/07 04:19:41;;;;;;;;;;;20.20;54.70;;;;;;1498874;78;1468;-62
2023/03/07 04:21:43;;;;;;;;;;;20.20;54.70;;;;;;1496953;78;1144;-62
2023/03/07 04:23:45;;;;;;;;;;;20.20;54.80;;;;;;1495806;78;953;-62
2023/03/07 04:25:48;;;;;;;;;;;20.20;54.70;;;;;;1513687;78;760;-63
2023/03/07 04:27:50;;;;;;;;;;;20.10;54.80;;;;;;1513496;78;1785;-63
2023/03/07 04:29:52;;;;;;;;;;;20.10;55.00;;;;;;1505741;78;877;-63
2023/03/07 04:31:54;;;;;;;;;;;20.00;54.90;;;;;;1512240;78;1109;-63
2023/03/07 04:33:56;;;;;;;;;;;20.00;55.20;;;;;;1494479;78;1929;-64
2023/03/07 04:35:58;;;;;;;;;;;19.90;55.40;;;;;;1498153;78;686;-64
2023/03/07 04:38:00;;;;;;;;;;;19.90;55.40;;;;;;1510274;77;669;-63
2023/03/07 04:40:02;;;;;;;;;;;19.90;55.50;;;;;;1499920;78;803;-63
2023/03/07 04:42:04;;;;;;;;;;;19.90;55.40;;;;;;1512283;78;1138;-62
2023/03/07 04:44:06;;;;;;;;;;;19.90;55.50;;;;;;1505354;78;697;-62
2023/03/07 04:46:08;;;;;;;;;;;19.90;55.60;;;;;;1496920;78;701;-62
2023/03/07 04:48:10;;;;;;;;;;;19.90;55.60;;;;;;1514049;78;1532;-62
2023/03/07 04:50:11;;;;;;;;;;;19.90;55.70;;;;;;1513941;78;848;-62
2023/03/07 04:52:13;;;;;;;;;;;19.90;55.80;;;;;;1499851;78;1146;-65
2023/03/07 04:54:15;;;;;;;;;;;19.80;55.60;;;;;;1498185;78;1928;-62
2023/03/07 04:56:17;;;;;;;;;;;19.90;55.50;;;;;;1515624;77;1037;-63
2023/03/07 04:58:19;;;;;;;;;;;19.90;55.60;;;;;;1522882;77;741;-62
2023/03/07 05:00:21;;;;;;;;;;;19.90;55.40;;;;;;1523113;77;726;-63
2023/03/07 05:02:23;;;;;;;;;;;19.90;55.20;;;;;;1515904;77;1349;-62
2023/03/07 05:04:25;;;;;;;;;;;20.00;55.20;;;;;;1518863;77;712;-62
2023/03/07 05:06:26;;;;;;;;;;;19.90;55.40;;;;;;1524588;77;800;-62
2023/03/07 05:08:28;;;;;;;;;;;20.00;55.30;;;;;;1512055;77;689;-62
2023/03/07 05:10:31;;;;;;;;;;;20.00;55.20;;;;;;1507046;78;816;-66
2023/03/07 05:12:33;;;;;;;;;;;20.00;55.20;;;;;;1498170;78;1184;-62
2023/03/07 05:14:35;;;;;;;;;;;20.00;55.10;;;;;;1509499;78;1937;-61
2023/03/07 05:16:36;;;;;;;;;;;20.10;55.20;;;;;;1502017;78;1523;-61
2023/03/07 05:18:38;;;;;;;;;;;20.10;55.20;;;;;;1500591;78;567;-62
2023/03/07 05:20:42;;;;;;;;;;;20.00;55.10;;;;;;1584170;74;731;-62
2023/03/07 05:22:43;;;;;;;;;;;20.00;55.20;;;;;;1548408;74;1085;-61
2023/03/07 05:24:45;;;;;;;;;;;20.10;55.20;;;;;;1573397;74;664;-61
2023/03/07 05:26:47;;;;;;;;;;;20.10;55.20;;;;;;1566402;74;713;-61
2023/03/07 05:28:49;;;;;;;;;;;20.10;55.40;;;;;;1578985;74;718;-62
2023/03/07 05:30:51;;;;;;;;;;;20.00;55.40;;;;;;1576643;74;1611;-61
2023/03/07 05:32:53;;;;;;;;;;;20.00;55.50;;;;;;1557445;74;1079;-61
2023/03/07 05:34:55;;;;;;;;;;;19.90;56.70;;;;;;1559860;74;1920;-61
2023/03/07 05:36:57;;;;;;;;;;;19.80;58.10;;;;;;1548711;74;780;-63
2023/03/07 05:38:59;;;;;;;;;;;19.80;57.70;;;;;;1559596;74;728;-62
2023/03/07 05:41:01;;;;;;;;;;;19.70;57.90;;;;;;1555892;74;1159;-62
2023/03/07 05:43:02;;;;;;;;;;;19.70;57.80;;;;;;1569709;74;732;-62
2023/03/07 05:45:05;;;;;;;;;;;19.80;57.70;;;;;;1556253;74;1556;-62
2023/03/07 05:47:07;;;;;;;;;;;19.80;57.00;;;;;;1558706;74;713;-63
2023/03/07 05:49:08;;;;;;;;;;;19.80;57.00;;;;;;1562178;74;673;-63
2023/03/07 05:51:10;;;;;;;;;;;19.80;56.70;;;;;;1568217;74;1081;-63
2023/03/07 05:53:12;;;;;;;;;;;19.80;56.80;;;;;;1569337;74;732;-62
2023/03/07 05:55:14;;;;;;;;;;;19.80;57.00;;;;;;1562441;74;1934;-63
2023/03/07 05:57:16;;;;;;;;;;;19.80;56.80;;;;;;1556273;75;697;-62
2023/03/07 05:59:18;;;;;;;;;;;19.80;56.80;;;;;;1548454;75;1561;-62
2023/03/07 06:01:20;;;;;;;;;;;19.80;56.60;;;;;;1552363;75;1197;-68
2023/03/07 06:03:21;;;;;;;;;;;19.80;56.50;;;;;;1549102;75;757;-62
2023/03/07 06:05:23;;;;;;;;;;;19.80;56.50;;;;;;1548057;75;713;-61
2023/03/07 06:07:26;;;;;;;;;;;19.90;56.30;;;;;;1558174;75;693;-62
2023/03/07 06:09:28;;;;;;;;;;;19.90;56.20;;;;;;1557588;75;668;-62
2023/03/07 06:11:29;;;;;;;;;;;19.90;56.00;;;;;;1567315;75;1148;-62
2023/03/07 06:13:31;;;;;;;;;;;19.90;56.40;;;;;;1551242;75;1566;-69
2023/03/07 06:15:33;;;;;;;;;;;19.90;56.20;;;;;;1552316;75;1933;-64
2023/03/07 06:17:35;;;;;;;;;;;19.90;56.00;;;;;;1561677;75;810;-61
2023/03/07 06:19:37;;;;;;;;;;;19.90;56.00;;;;;;1545540;75;726;-61
2023/03/07 06:21:39;;;;;;;;;;;20.00;56.00;;;;;;1561146;75;1175;-61
2023/03/07 06:23:41;;;;;;;;;;;20.00;55.90;;;;;;1560707;75;681;-62
2023/03/07 06:25:43;;;;;;;;;;;20.00;55.70;;;;;;1547439;75;811;-62
2023/03/07 06:27:44;;;;;;;;;;;19.90;55.70;;;;;;1546407;75;1587;-61
2023/03/07 06:29:47;;;;;;;;;;;20.00;55.80;;;;;;1566566;75;702;-61
2023/03/07 06:31:49;;;;;;;;;;;20.00;55.70;;;;;;1571233;75;1148;-62
2023/03/07 06:33:51;;;;;;;;;;;20.00;55.90;;;;;;1557475;75;738;-61
2023/03/07 06:35:53;;;;;;;;;;;20.00;55.80;;;;;;1540437;75;1938;-61
2023/03/07 06:37:55;;;;;;;;;;;19.90;56.00;;;;;;1563984;75;741;-62
2023/03/07 06:39:57;;;;;;;;;;;20.00;56.00;;;;;;1568688;75;770;-62
2023/03/07 06:41:59;;;;;;;;;;;20.00;55.10;;;;;;1567578;75;1562;-62
2023/03/07 06:44:01;;;;;;;;;;;19.90;55.50;;;;;;1563326;75;689;-62
2023/03/07 06:46:02;;;;;;;;;;;20.00;55.60;;;;;;1551606;75;734;-61
2023/03/07 06:48:04;;;;;;;;;;;20.00;55.60;;;;;;1557170;75;671;-66
2023/03/07 06:50:07;;;;;;;;;;;20.00;55.50;;;;;;1575701;75;689;-61
2023/03/07 06:52:09;;;;;;;;;;;20.00;55.30;;;;;;1572858;75;1136;-61
2023/03/07 06:54:10;;;;;;;;;;;20.00;55.20;;;;;;1562216;75;1537;-60
2023/03/07 06:56:12;;;;;;;;;;;20.00;55.10;;;;;;1569712;75;1924;-61
2023/03/07 06:58:14;;;;;;;;;;;20.10;55.10;;;;;;1558268;75;783;-61
2023/03/07 07:00:17;;;;;;;;;;;20.10;55.00;;;;;;1551025;75;755;-61
2023/03/07 07:02:18;;;;;;;;;;;20.10;54.90;;;;;;1567928;75;1199;-61
2023/03/07 07:04:20;;;;;;;;;;;20.10;54.90;;;;;;1548133;75;717;-60
2023/03/07 07:06:22;;;;;;;;;;;20.10;54.90;;;;;;1548692;75;689;-61
2023/03/07 07:08:24;;;;;;;;;;;20.10;54.80;;;;;;1550120;75;1571;-66
2023/03/07 07:10:26;;;;;;;;;;;20.10;54.80;;;;;;1549717;75;811;-60
2023/03/07 07:12:28;;;;;;;;;;;20.10;54.80;;;;;;1566964;75;1099;-61
2023/03/07 07:14:30;;;;;;;;;;;20.10;54.70;;;;;;1557868;75;728;-61
2023/03/07 07:16:32;;;;;;;;;;;20.00;54.60;;;;;;1553756;75;1928;-61
2023/03/07 07:18:34;;;;;;;;;;;20.10;54.70;;;;;;1556992;75;760;-61
2023/03/07 07:20:36;;;;;;;;;;;20.10;54.70;;;;;;1549697;75;824;-63
2023/03/07 07:22:38;;;;;;;;;;;20.10;54.70;;;;;;1554630;75;1604;-61
2023/03/07 07:24:40;;;;;;;;;;;20.10;54.60;;;;;;1555231;75;702;-62
2023/03/07 07:26:42;;;;;;;;;;;20.00;54.40;;;;;;1553086;75;687;-67
2023/03/07 07:28:43;;;;;;;;;;;20.00;54.50;;;;;;1514666;77;667;-61
2023/03/07 07:30:45;;;;;;;;;;;20.00;54.40;;;;;;1565171;75;707;-60
2023/03/07 07:32:47;;;;;;;;;;;20.00;54.40;;;;;;1543796;75;1098;-61
2023/03/07 07:34:49;;;;;;;;;;;20.10;54.50;;;;;;1568871;75;720;-61
2023/03/07 07:36:52;;;;;;;;;;;20.10;54.50;;;;;;1543187;75;1938;-60
2023/03/07 07:38:54;;;;;;;;;;;20.00;54.40;;;;;;1544927;75;771;-63
2023/03/07 07:40:55;;;;;;;;;;;20.00;54.40;;;;;;1551441;75;729;-61
2023/03/07 07:42:57;;;;;;;;;;;20.10;54.50;;;;;;1555465;75;1153;-60
2023/03/07 07:44:59;;;;;;;;;;;20.00;54.30;;;;;;1554226;75;645;-60
2023/03/07 07:47:01;;;;;;;;;;;20.00;54.30;;;;;;1553737;75;757;-62
2023/03/07 07:49:03;;;;;;;;;;;20.10;54.50;;;;;;1548065;75;743;-62
2023/03/07 07:51:05;;;;;;;;;;;20.00;54.30;;;;;;1551214;75;1565;-62
2023/03/07 07:53:07;;;;;;;;;;;20.00;54.20;;;;;;1555109;75;743;-61
2023/03/07 07:55:09;;;;;;;;;;;20.00;54.20;;;;;;1552259;75;1984;-61
2023/03/07 07:57:11;;;;;;;;;;;20.00;54.20;;;;;;1561095;75;1100;-61
2023/03/07 07:59:13;;;;;;;;;;;20.00;54.30;;;;;;1559386;74;742;-61
2023/03/07 08:01:18;;;;;;;;;;;20.00;54.40;;;;;;1563533;75;1204;-61
2023/03/07 08:03:20;;;;;;;;;;;20.10;54.50;;;;;;1553077;75;694;-62
2023/03/07 08:05:22;;;;;;;;;;;20.10;54.40;;;;;;1554701;75;1503;-60
2023/03/07 08:07:24;;;;;;;;;;;20.10;54.40;;;;;;1555581;75;742;-60
2023/03/07 08:09:26;;;;;;;;;;;20.10;54.40;;;;;;1507257;77;752;-60
2023/03/07 08:11:28;;;;;;;;;;;20.10;54.50;;;;;;1534760;76;1157;-62
2023/03/07 08:13:29;;;;;;;;;;;20.20;54.50;;;;;;1495896;78;726;-60
2023/03/07 08:15:31;;;;;;;;;;;20.20;54.50;;;;;;1498316;78;1934;-61
2023/03/07 08:17:33;;;;;;;;;;;20.20;54.60;;;;;;1498218;78;746;-61
2023/03/07 08:19:35;;;;;;;;;;;20.30;54.60;;;;;;1493645;79;1565;-60
2023/03/07 08:21:37;;;;;;;;;;;20.30;54.50;;;;;;1508422;79;1105;-61
2023/03/07 08:23:39;;;;;;;;;;;20.10;54.30;;;;;;1551729;75;820;-61
2023/03/07 08:25:41;;;;;;;;;;;20.30;54.80;;;;;;1565994;75;691;-61
2023/03/07 08:27:43;;;;;;;;;;;20.40;54.70;;;;;;1560449;75;639;-60
2023/03/07 08:29:46;;;;;;;;;;;20.40;54.50;;;;;;1552591;75;733;-60
2023/03/07 08:31:50;;;;;;;;;;;20.50;54.60;;;;;;1544904;75;2152;-60
2023/03/07 08:33:52;;;;;;;;;;;20.50;54.50;;;;;;1549343;75;1519;-60
2023/03/07 08:35:54;;;;;;;;;;;20.60;54.40;;;;;;1557338;75;1944;-61
2023/03/07 08:37:58;;;;;;;;;;;20.60;54.30;;;;;;1549821;75;773;-61
2023/03/07 08:39:59;;;;;;;;;;;20.60;54.20;;;;;;1555756;75;735;-60
2023/03/07 08:42:01;;;;;;;;;;;20.60;54.10;;;;;;1562311;75;1151;-61
2023/03/07 08:44:03;;;;;;;;;;;20.70;54.10;;;;;;1551748;75;698;-61
2023/03/07 08:46:05;;;;;;;;;;;20.70;54.00;;;;;;1541749;75;722;-60
2023/03/07 08:48:07;;;;;;;;;;;20.70;53.90;;;;;;1550483;75;1674;-60
2023/03/07 08:50:10;;;;;;;;;;;20.70;53.90;;;;;;1537242;76;779;-61
2023/03/07 08:52:12;;;;;;;;;;;20.80;53.80;;;;;;1517107;77;1150;-60
2023/03/07 08:54:13;;;;;;;;;;;20.70;53.70;;;;;;1518513;76;716;-60
2023/03/07 08:56:16;;;;;;;;;;;20.80;53.60;;;;;;1514343;77;1948;-60
2023/03/07 08:58:18;;;;;;;;;;;20.80;53.50;;;;;;1501002;78;1103;-60
2023/03/07 09:00:20;;;;;;;;;;;20.80;53.50;;;;;;1506800;78;715;-61
2023/03/07 09:02:22;;;;;;;;;;;20.90;53.50;;;;;;1501069;78;1550;-60
2023/03/07 09:04:24;;;;;;;;;;;20.80;53.30;;;;;;1553303;74;736;-61
2023/03/07 09:06:25;;;;;;;;;;;20.90;53.40;;;;;;1561843;74;697;-61
2023/03/07 09:08:27;;;;;;;;;;;20.90;53.30;;;;;;1577841;74;623;-61
2023/03/07 09:10:29;;;;;;;;;;;20.90;53.20;;;;;;1563493;74;738;-61
2023/03/07 09:12:32;;;;;;;;;;;21.00;53.10;;;;;;1549906;74;1166;-61
2023/03/07 09:14:34;;;;;;;;;;;20.90;53.10;;;;;;1563270;74;736;-60
2023/03/07 09:16:36;;;;;;;;;;;21.00;53.00;;;;;;1568128;74;1946;-60
2023/03/07 09:18:38;;;;;;;;;;;20.90;53.00;;;;;;1566634;74;720;-60
2023/03/07 09:20:40;;;;;;;;;;;20.90;52.80;;;;;;1517093;77;691;-61
2023/03/07 09:22:42;;;;;;;;;;;21.00;52.80;;;;;;1516342;78;1173;-61
2023/03/07 09:24:43;;;;;;;;;;;21.00;52.80;;;;;;1514005;78;699;-60
2023/03/07 09:26:45;;;;;;;;;;;21.00;52.80;;;;;;1511305;78;686;-60
2023/03/07 09:28:47;;;;;;;;;;;21.00;52.80;;;;;;1567295;74;720;-60
2023/03/07 09:30:49;;;;;;;;;;;21.00;52.70;;;;;;1565446;74;1670;-61
2023/03/07 09:32:51;;;;;;;;;;;21.00;52.70;;;;;;1566180;74;1121;-60
2023/03/07 09:34:53;;;;;;;;;;;21.00;52.50;;;;;;1564916;74;658;-60
2023/03/07 09:36:55;;;;;;;;;;;21.00;52.50;;;;;;1570415;74;1931;-60
2023/03/07 09:38:57;;;;;;;;;;;21.10;52.60;;;;;;1561938;74;680;-60
2023/03/07 09:41:03;;;;;;;;;;;21.10;52.40;;;;;;1565978;74;695;-60
2023/03/07 09:43:09;;;;;;;;;;;21.10;52.40;;;;;;1556781;74;1585;-60
2023/03/07 09:45:25;;;;;;;;;;;21.10;52.10;;;;;;1562291;74;774;-61
2023/03/07 09:47:28;;;;;;;;;;;21.10;52.20;;;;;;1563463;74;1819;-60
2023/03/07 09:49:41;;;;;;;;;;;21.10;52.20;;;;;;1567277;74;716;-61
2023/03/07 09:51:43;;;;;;;;;;;21.10;52.10;;;;;;1567167;74;1128;-60
2023/03/07 09:53:46;;;;;;;;;;;21.00;52.00;;;;;;1566027;74;819;-61
2023/03/07 09:55:50;;;;;;;;;;;21.10;52.00;;;;;;1569144;74;805;-60
2023/03/07 09:57:55;;;;;;;;;;;21.00;51.80;;;;;;1569746;74;1320;-62
2023/03/07 10:00:08;;;;;;;;;;;21.10;51.90;;;;;;1569393;75;703;-60
2023/03/07 10:02:18;;;;;;;;;;;21.00;51.80;;;;;;1542531;75;1179;-61
2023/03/07 10:04:21;;;;;;;;;;;21.00;51.70;;;;;;1569882;75;750;-60
2023/03/07 10:06:33;;;;;;;;;;;21.10;51.80;;;;;;1571540;75;764;-61
2023/03/07 10:08:35;;;;;;;;;;;21.00;51.70;;;;;;1572676;75;833;-65
2023/03/07 10:10:41;;;;;;;;;;;21.10;51.80;;;;;;1549284;76;900;-60
2023/03/07 10:12:45;;;;;;;;;;;21.10;51.70;;;;;;1564265;75;1817;-61
2023/03/07 10:14:48;;;;;;;;;;;21.00;51.50;;;;;;1528528;75;1109;-61
2023/03/07 10:16:52;;;;;;;;;;;21.00;51.50;;;;;;1567371;75;2092;-61
2023/03/07 10:18:55;;;;;;;;;;;21.00;51.60;;;;;;1559984;75;699;-61
2023/03/07 10:21:02;;;;;;;;;;;21.00;51.50;;;;;;1565088;75;1700;-60
2023/03/07 10:23:20;;;;;;;;;;;21.10;51.50;;;;;;1569031;75;1906;-61
2023/03/07 10:25:26;;;;;;;;;;;21.20;51.40;;;;;;1568743;75;1937;-61
2023/03/07 10:27:28;;;;;;;;;;;21.00;51.40;;;;;;1564474;75;726;-61
2023/03/07 10:29:32;;;;;;;;;;;21.00;51.40;;;;;;1569544;75;722;-61
2023/03/07 10:31:38;;;;;;;;;;;21.00;51.50;;;;;;1569984;75;1121;-61
2023/03/07 10:33:40;;;;;;;;;;;21.00;51.40;;;;;;1568667;75;1490;-61
2023/03/07 10:35:42;;;;;;;;;;;21.00;51.30;;;;;;1566857;74;676;-61
2023/03/07 10:37:55;;;;;;;;;;;21.00;51.40;;;;;;1570409;75;1943;-62
2023/03/07 10:39:58;;;;;;;;;;;21.00;51.40;;;;;;1569725;75;1522;-61
2023/03/07 10:42:00;;;;;;;;;;;21.00;51.40;;;;;;1569406;75;1074;-63
2023/03/07 10:44:02;;;;;;;;;;;21.00;51.40;;;;;;1568842;75;681;-60
2023/03/07 10:46:17;;;;;;;;;;;21.10;51.50;;;;;;1561079;75;746;-61
2023/03/07 10:48:19;;;;;;;;;;;21.00;51.30;;;;;;1555409;75;694;-61
2023/03/07 10:50:37;;;;;;;;;;;21.00;51.30;;;;;;1563887;74;728;-61
2023/03/07 10:52:40;;;;;;;;;;;21.00;51.30;;;;;;1570340;75;1141;-61
2023/03/07 10:54:42;;;;;;;;;;;21.00;51.30;;;;;;1568153;75;1554;-60
2023/03/07 10:57:02;;;;;;;;;;;21.00;51.30;;;;;;1561200;75;1931;-60
2023/03/07 10:59:04;;;;;;;;;;;20.90;51.20;;;;;;1566695;74;953;-61
2023/03/07 11:01:08;;;;;;;;;;;21.00;51.30;;;;;;1560098;75;1196;-60
2023/03/07 11:03:20;;;;;;;;;;;21.00;51.30;;;;;;1567450;75;690;-61
2023/03/07 11:05:27;;;;;;;;;;;21.00;51.30;;;;;;1506343;76;1113;-61
2023/03/07 11:07:29;;;;;;;;;;;21.00;51.20;;;;;;1565249;75;1226;-62
2023/03/07 11:09:32;;;;;;;;;;;21.00;51.30;;;;;;1568413;75;730;-60
2023/03/07 11:11:35;;;;;;;;;;;20.90;51.40;;;;;;1550001;75;1157;-61
2023/03/07 11:13:37;;;;;;;;;;;21.00;51.30;;;;;;1550504;75;686;-60
2023/03/07 11:15:39;;;;;;;;;;;20.90;51.40;;;;;;1570698;75;784;-61
2023/03/07 11:17:41;;;;;;;;;;;20.80;51.40;;;;;;1563216;75;1937;-61
2023/03/07 11:19:44;;;;;;;;;;;20.90;51.60;;;;;;1552390;75;699;-62
2023/03/07 11:21:47;;;;;;;;;;;20.90;51.60;;;;;;1535674;76;1629;-62
2023/03/07 11:23:51;;;;;;;;;;;20.90;51.50;;;;;;1558244;75;918;-61
2023/03/07 11:25:54;;;;;;;;;;;20.80;51.40;;;;;;1554573;75;1152;-61
2023/03/07 11:27:56;;;;;;;;;;;20.90;51.50;;;;;;1551193;75;751;-61
2023/03/07 11:30:16;;;;;;;;;;;20.90;51.60;;;;;;1554282;75;712;-61
2023/03/07 11:32:19;;;;;;;;;;;20.90;51.80;;;;;;1550374;74;1140;-61
2023/03/07 11:34:29;;;;;;;;;;;20.90;52.10;;;;;;1555246;75;755;-61
2023/03/07 11:36:31;;;;;;;;;;;20.80;51.90;;;;;;1554679;75;1932;-61
2023/03/07 11:38:51;;;;;;;;;;;20.80;52.20;;;;;;1555631;75;770;-64
2023/03/07 11:40:57;;;;;;;;;;;20.80;52.20;;;;;;1556022;75;737;-61
2023/03/07 11:43:04;;;;;;;;;;;20.80;52.30;;;;;;1553236;75;1604;-62
2023/03/07 11:45:26;;;;;;;;;;;20.90;52.30;;;;;;1561675;75;692;-64
2023/03/07 11:47:32;;;;;;;;;;;20.80;52.30;;;;;;1559402;75;704;-60
2023/03/07 11:49:36;;;;;;;;;;;20.80;52.30;;;;;;1556369;75;1870;-61
2023/03/07 11:51:51;;;;;;;;;;;20.80;52.30;;;;;;1556485;75;1156;-61
2023/03/07 11:53:58;;;;;;;;;;;20.80;52.30;;;;;;1559250;75;1956;-60
2023/03/07 11:56:04;;;;;;;;;;;20.70;52.30;;;;;;1554803;75;726;-61
2023/03/07 11:58:24;;;;;;;;;;;20.80;52.40;;;;;;1556581;75;1939;-61
2023/03/07 12:00:34;;;;;;;;;;;20.70;52.40;;;;;;1543118;75;1101;-61
2023/03/07 12:02:40;;;;;;;;;;;20.80;52.40;;;;;;1570474;75;1143;-61
2023/03/07 12:04:59;;;;;;;;;;;20.80;52.30;;;;;;1553858;75;1586;-62
2023/03/07 12:07:05;;;;;;;;;;;20.90;52.30;;;;;;1557835;75;2116;-61
2023/03/07 12:09:28;;;;;;;;;;;20.90;52.20;;;;;;1553401;75;921;-59
2023/03/07 12:11:42;;;;;;;;;;;20.90;52.20;;;;;;1554634;75;1590;-59
2023/03/07 12:13:55;;;;;;;;;;;20.70;52.10;;;;;;1561016;75;691;-61